Spicewood, TX (78669)

12:22 PM CDT on July 03, 2015 (GMT -0500)
Village of Briarcliff | | Change Station
CLOSE
Current Station
Personal Weather Station
Location: Spicewood, TX
Elevation: 853 ft
Nearby Weather Stations

Elev 853 ft 30.40 °N, 98.05 °W | Updated 4 minutes ago

Partly Cloudy
Partly Cloudy
91.4 °F
Feels Like 99 °F
N
2.7
Wind Variable Wind from WSW

Today
High -- | Low -- °F
--% Chance of Precip.
Yesterday
High -- | Low -- °F
Precip. -- in
6:34 AM 8:38 PM
Waning Gibbous, 97% visible
Pressure 30.04 in
Visibility 10.0 miles
Clouds Scattered Clouds 3700 ft
Mostly Cloudy 4200 ft
Heat Index 99 °F
Dew Point 72 °F
Humidity 53%
Rainfall 0.00 in
Snow Depth Not available.
UV 6 out of 12
Pollen 2.40 out of 12
Air Quality Not available.
Flu Activity Not available.
METAR KRYW 031715Z AUTO 21009KT 10SM SCT037 BKN042 30/20 A3004 RMK AO2 T02970196

More Conditions Fewer Conditions

Pressure 30.04 in
Visibility 10.0 miles
Clouds Scattered Clouds 3700 ft
Mostly Cloudy 4200 ft
Heat Index 99 °F
Dew Point 72 °F
Humidity 53%
Rainfall 0.00 in
Snow Depth Not available.
UV 6 out of 12
Pollen 2.40 out of 12
Air Quality Not available.
Flu Activity Not available.
METAR KRYW 031715Z AUTO 21009KT 10SM SCT037 BKN042 30/20 A3004 RMK AO2 T02970196

More Conditions Fewer Conditions

10-Day Weather Forecast

×

Almanac

Astronomy

Jul. 03, 2015 Rise Set
Actual Time
Civil Twilight
Nautical Twilight
Astronomical Twilight
Moon
Length of Visible Light
Length of Day
Tomorrow will be .
, % of the Moon is Illuminated

Today's Extremes

State Highs State Lows

Community

WunderPhotos

Upload Photos

1,834,718 photos uploaded!

WunderBlogs® & News

Nearby

Air Quality

  Air Quality AQ Index Pollutant
Not available.

Snow Depth

Station Depth Elevation

Earthquake Activity

City Distance Mag. Time & Date
Minimum magnitude displayed is 2.5.

Coastal Water Temperatures

Place Temperature

Stations

Nearby Weather Stations

Station Location Temp. Windchill Dew Point Humidity Wind Precip. Elev Updated Type